Run Long — V3DI3 — position and weather

sailwx.info

Track history (hours):
 
Tides and Currents Weather Stations Pressure Air Temp Water Temp Dewpoint Dewpoint Depression Visibility Wind Speed Wind Dir Waves Ship Positions

Run Long

Last reported at 2018-Jan-20 17:57 UTC. Time now 2018-Jan-21 20:24 UTC.
Position N 34°02' E 129°54'.

Length 79 m; draft 5.3 m.

Type: Cargo ship. MMSI: 312999000.

Date/timePositionNaut miles runAvg speedWind from/ knotsBaromVisibWave heightAir tempDewpointWater temp
2018-Jan-20 17:57N 34°02' E 129°54'4 8.6
2018-Jan-20 17:31N 34°02' E 129°59'4 8.5
2018-Jan-20 17:00N 34°02' E 130°04'4 8.7
2018-Jan-20 16:31N 34°02' E 130°09'4 8.8
2018-Jan-20 16:00N 34°03' E 130°14'4 8.8
2018-Jan-20 15:30N 34°02' E 130°20'4 8.8
2018-Jan-20 15:00N 34°02' E 130°25'4 9.0
2018-Jan-20 14:31N 34°03' E 130°30'4 9.0
2018-Jan-20 14:01N 34°03' E 130°36'4 8.9
2018-Jan-20 13:31N 34°03' E 130°41'5 9.2
2018-Jan-20 13:00N 34°02' E 130°47'4 9.0
2018-Jan-20 12:30N 34°00' E 130°52'4 7.7
2018-Jan-20 12:00N 33°57' E 130°52'3 6.6
2018-Jan-20 11:31N 33°55' E 130°56'4 7.5
2018-Jan-20 11:01N 33°58' E 130°59'3 6.9
2018-Jan-20 10:31N 33°58' E 131°03'3 5.3
2018-Jan-20 10:00N 33°55' E 131°02'0 0.0
2018-Jan-20 09:30N 33°55' E 131°02'0 0.0
2018-Jan-20 09:00N 33°55' E 131°02'0 0.0
2018-Jan-20 08:30N 33°55' E 131°02'0 0.6
2018-Jan-20 08:00N 33°55' E 131°02'4 7.5
2018-Jan-20 07:30N 33°53' E 131°07'4 8.1
2018-Jan-20 07:00N 33°53' E 131°11'4 8.1
2018-Jan-20 06:31N 33°51' E 131°16'4 8.3
2018-Jan-20 06:00N 33°51' E 131°21'4 8.6
2018-Jan-20 05:31N 33°50' E 131°26'4 8.5
2018-Jan-20 05:00N 33°49' E 131°31'4 8.4
2018-Jan-20 04:30N 33°48' E 131°36'4 8.5
2018-Jan-20 04:00N 33°47' E 131°41'4 8.3
2018-Jan-20 03:31N 33°46' E 131°46'4 8.5
2018-Jan-20 03:00N 33°45' E 131°51'4 8.8
2018-Jan-20 02:31N 33°44' E 131°56'4 8.6
2018-Jan-20 02:01N 33°43' E 132°01'9 8.1
2018-Jan-20 00:52N 33°43' E 132°12'9 8.2
2018-Jan-19 23:45N 33°46' E 132°23'3 8.3
2018-Jan-19 23:20N 33°47' E 132°27'3 8.4
2018-Jan-19 22:58N 33°49' E 132°30'5 8.4
2018-Jan-19 22:25N 33°52' E 132°34'4 8.8
2018-Jan-19 22:00N 33°54' E 132°37'5 9.4
2018-Jan-19 21:30N 33°57' E 132°42'5 9.8
2018-Jan-19 20:58N 34°01' E 132°46'1310.0
2018-Jan-19 19:41N 34°10' E 132°57'55 8.9
2018-Jan-19 13:31N 34°26' E 134°01'0 9.4
2018-Jan-19 13:30N 34°26' E 134°01'610.0
2018-Jan-19 12:53N 34°26' E 134°09'410.8
2018-Jan-19 12:30N 34°25' E 134°13'610.0
2018-Jan-19 11:51N 34°25' E 134°21'4 9.7
2018-Jan-19 11:30N 34°26' E 134°25'5 9.4
2018-Jan-19 11:00N 34°28' E 134°30'5 9.3
2018-Jan-19 10:30N 34°30' E 134°35'5 9.3
2018-Jan-19 10:00N 34°31' E 134°40'5 9.4
2018-Jan-19 09:30N 34°33' E 134°46'5 9.0
2018-Jan-19 09:00N 34°35' E 134°51'4 8.5
2018-Jan-19 08:30N 34°36' E 134°56'4 7.5
2018-Jan-19 08:00N 34°38' E 134°60'3 6.1
2018-Jan-19 07:30N 34°36' E 135°03'3 5.7
2018-Jan-19 07:00N 34°34' E 135°05'4 8.8
2018-Jan-19 06:30N 34°30' E 135°04'4 8.5
2018-Jan-19 06:00N 34°26' E 135°03'4 8.4
2018-Jan-19 05:30N 34°22' E 135°01'4 8.2
2018-Jan-19 05:00N 34°18' E 134°59'4 8.2
2018-Jan-19 04:30N 34°14' E 134°59'4 8.7
2018-Jan-19 04:00N 34°09' E 134°59'4 8.5
2018-Jan-19 03:30N 34°05' E 134°60'4 8.7
2018-Jan-19 03:00N 34°01' E 135°00'4 8.7
2018-Jan-19 02:30N 33°57' E 135°01'4 8.8
2018-Jan-19 02:00N 33°52' E 135°01'5 9.0
2018-Jan-19 01:30N 33°49' E 135°05'103 7.2
2018-Jan-18 11:07N 34°26' E 137°01'10 8.6
2018-Jan-18 09:54N 34°36' E 136°58'4 8.9
2018-Jan-18 09:26N 34°39' E 137°01'4 9.0
2018-Jan-18 09:00N 34°41' E 137°05'4 8.9
2018-Jan-18 08:30N 34°43' E 137°10'5 8.6
2018-Jan-18 07:57N 34°44' E 137°16'  
2018-Jan-12 14:57N 35°36' E 140°06'0 0.0
2018-Jan-12 14:30N 35°36' E 140°06'0 0.0
2018-Jan-12 14:00N 35°36' E 140°06'0 0.0
2018-Jan-12 13:30N 35°36' E 140°06'0 0.0
2018-Jan-12 12:57N 35°36' E 140°06'0 0.0
2018-Jan-12 12:30N 35°36' E 140°06'0 0.0
2018-Jan-12 11:57N 35°36' E 140°06'0 0.0
2018-Jan-12 11:30N 35°36' E 140°06'0 0.0
2018-Jan-12 11:00N 35°36' E 140°06'0 0.0
2018-Jan-12 10:30N 35°36' E 140°06'0 0.0
2018-Jan-12 10:00N 35°36' E 140°06'0 0.0
2018-Jan-12 09:30N 35°36' E 140°06'0 0.0
2018-Jan-12 09:00N 35°36' E 140°06'0 0.0
2018-Jan-12 08:30N 35°36' E 140°06'0 0.0
2018-Jan-12 08:00N 35°36' E 140°06'0 0.0
2018-Jan-12 07:30N 35°36' E 140°06'0 0.0
2018-Jan-12 07:00N 35°36' E 140°06'0 0.0
2018-Jan-12 06:27N 35°36' E 140°06'0 0.0
2018-Jan-12 06:00N 35°36' E 140°06'0 0.0
2018-Jan-12 05:30N 35°36' E 140°06'0 0.0
2018-Jan-12 05:00N 35°36' E 140°06'0 0.0
2018-Jan-12 04:30N 35°36' E 140°06'0 0.0
2018-Jan-12 04:00N 35°36' E 140°06'0 0.0
2018-Jan-12 03:30N 35°36' E 140°06'0 0.0
2018-Jan-12 03:00N 35°36' E 140°06'0 0.0
2018-Jan-12 02:30N 35°36' E 140°06'0 0.0
2018-Jan-12 02:00N 35°36' E 140°06'0 0.0
2018-Jan-12 01:30N 35°36' E 140°06'0 0.0
2018-Jan-12 01:00N 35°36' E 140°06'0 0.0
2018-Jan-12 00:30N 35°36' E 140°06'0 0.0
2018-Jan-12 00:00N 35°36' E 140°06'0 0.0
2018-Jan-11 23:30N 35°36' E 140°06'0 0.0
2018-Jan-11 23:00N 35°36' E 140°06'0 0.3
2018-Jan-11 22:30N 35°36' E 140°06'2 4.6
2018-Jan-11 22:00N 35°35' E 140°03'1 2.7
2018-Jan-11 21:28N 35°35' E 140°01'0 0.0
2018-Jan-11 20:58N 35°35' E 140°01'0 0.0
2018-Jan-11 20:28N 35°35' E 140°01'0 0.0
2018-Jan-11 19:58N 35°35' E 140°01'0 0.0
2018-Jan-11 19:28N 35°35' E 140°01'0 0.0
2018-Jan-11 18:58N 35°35' E 140°01'0 0.0
2018-Jan-11 18:28N 35°35' E 140°01'0 0.0
2018-Jan-11 17:58N 35°35' E 140°01'0 0.0
2018-Jan-11 17:28N 35°35' E 140°01'0 0.0
2018-Jan-11 16:58N 35°35' E 140°01'0 0.0
2018-Jan-11 16:25N 35°35' E 140°01'0 0.0
2018-Jan-11 15:58N 35°35' E 140°01'0 0.0
2018-Jan-11 15:28N 35°35' E 140°01'0 0.0
2018-Jan-11 14:55N 35°35' E 140°01'0 0.0
2018-Jan-11 14:28N 35°35' E 140°01'0 0.0
2018-Jan-11 13:58N 35°35' E 140°01'0 0.0
2018-Jan-11 13:28N 35°35' E 140°01'0 0.0
2018-Jan-11 12:58N 35°35' E 140°01'0 0.1
2018-Jan-11 12:31N 35°35' E 140°01'0 0.0
2018-Jan-11 11:58N 35°35' E 140°01'0 0.0
2018-Jan-11 11:31N 35°35' E 140°01'0 0.0
2018-Jan-11 11:01N 35°35' E 140°01'0 0.0
2018-Jan-11 10:30N 35°35' E 140°01'0 0.0
2018-Jan-11 10:00N 35°35' E 140°01'0 0.0
2018-Jan-11 09:30N 35°35' E 140°01'0 0.0
2018-Jan-11 09:00N 35°35' E 140°01'0 0.0
2018-Jan-11 08:30N 35°35' E 140°01'0 0.0
2018-Jan-11 08:00N 35°35' E 140°01'0 0.0
2018-Jan-11 07:30N 35°35' E 140°01'0 0.0
2018-Jan-11 07:00N 35°35' E 140°01'0 0.0
2018-Jan-11 06:30N 35°35' E 140°01'0 0.0
2018-Jan-11 05:57N 35°35' E 140°01'0 0.0
2018-Jan-11 05:30N 35°35' E 140°01'0 0.0
2018-Jan-11 05:00N 35°35' E 140°01'0 0.0
2018-Jan-11 04:30N 35°35' E 140°01'0 0.0
2018-Jan-11 04:00N 35°35' E 140°01'0 0.0
2018-Jan-11 03:30N 35°35' E 140°01'0 0.0
2018-Jan-11 03:00N 35°35' E 140°01'0 0.0
2018-Jan-11 02:30N 35°35' E 140°01'0 0.0
2018-Jan-11 02:00N 35°35' E 140°01'0 0.1
2018-Jan-11 01:30N 35°35' E 140°01'0 0.1
2018-Jan-11 01:00N 35°35' E 140°01'0 0.0
2018-Jan-11 00:30N 35°35' E 140°01'3 6.6
2018-Jan-11 00:00N 35°33' E 139°58'5 8.9
2018-Jan-10 23:30N 35°30' E 139°54'4 9.1
2018-Jan-10 23:00N 35°27' E 139°50'4 8.8
2018-Jan-10 22:30N 35°24' E 139°46'5 9.2
2018-Jan-10 22:00N 35°19' E 139°44'4 8.3
2018-Jan-10 21:30N 35°16' E 139°47'4 8.8
2018-Jan-10 21:00N 35°11' E 139°47'4 8.9
2018-Jan-10 20:30N 35°07' E 139°46'4 8.9
2018-Jan-10 20:00N 35°03' E 139°43'5 9.8
2018-Jan-10 19:30N 35°01' E 139°38'510.6
2018-Jan-10 19:00N 34°58' E 139°32'612.2
2018-Jan-10 18:28N 34°55' E 139°25'  
Track history (hours):
 
Tides and Currents Weather Stations Pressure Air Temp Water Temp Dewpoint Dewpoint Depression Visibility Wind Speed Wind Dir Waves Ship Positions

Run Long

Last reported at 2018-Jan-20 17:57 UTC. Time now 2018-Jan-21 20:24 UTC.
Position N 34°02' E 129°54'.

Length 79 m; draft 5.3 m.

Type: Cargo ship. MMSI: 312999000.

Date/timePositionNaut miles runAvg speedWind from/ knotsBaromVisibWave heightAir tempDewpointWater temp
2018-Jan-20 17:57N 34°02' E 129°54'4 8.6
2018-Jan-20 17:31N 34°02' E 129°59'4 8.5
2018-Jan-20 17:00N 34°02' E 130°04'4 8.7
2018-Jan-20 16:31N 34°02' E 130°09'4 8.8
2018-Jan-20 16:00N 34°03' E 130°14'4 8.8
2018-Jan-20 15:30N 34°02' E 130°20'4 8.8
2018-Jan-20 15:00N 34°02' E 130°25'4 9.0
2018-Jan-20 14:31N 34°03' E 130°30'4 9.0
2018-Jan-20 14:01N 34°03' E 130°36'4 8.9
2018-Jan-20 13:31N 34°03' E 130°41'5 9.2
2018-Jan-20 13:00N 34°02' E 130°47'4 9.0
2018-Jan-20 12:30N 34°00' E 130°52'4 7.7
2018-Jan-20 12:00N 33°57' E 130°52'3 6.6
2018-Jan-20 11:31N 33°55' E 130°56'4 7.5
2018-Jan-20 11:01N 33°58' E 130°59'3 6.9
2018-Jan-20 10:31N 33°58' E 131°03'3 5.3
2018-Jan-20 10:00N 33°55' E 131°02'0 0.0
2018-Jan-20 09:30N 33°55' E 131°02'0 0.0
2018-Jan-20 09:00N 33°55' E 131°02'0 0.0
2018-Jan-20 08:30N 33°55' E 131°02'0 0.6
2018-Jan-20 08:00N 33°55' E 131°02'4 7.5
2018-Jan-20 07:30N 33°53' E 131°07'4 8.1
2018-Jan-20 07:00N 33°53' E 131°11'4 8.1
2018-Jan-20 06:31N 33°51' E 131°16'4 8.3
2018-Jan-20 06:00N 33°51' E 131°21'4 8.6
2018-Jan-20 05:31N 33°50' E 131°26'4 8.5
2018-Jan-20 05:00N 33°49' E 131°31'4 8.4
2018-Jan-20 04:30N 33°48' E 131°36'4 8.5
2018-Jan-20 04:00N 33°47' E 131°41'4 8.3
2018-Jan-20 03:31N 33°46' E 131°46'4 8.5
2018-Jan-20 03:00N 33°45' E 131°51'4 8.8
2018-Jan-20 02:31N 33°44' E 131°56'4 8.6
2018-Jan-20 02:01N 33°43' E 132°01'9 8.1
2018-Jan-20 00:52N 33°43' E 132°12'9 8.2
2018-Jan-19 23:45N 33°46' E 132°23'3 8.3
2018-Jan-19 23:20N 33°47' E 132°27'3 8.4
2018-Jan-19 22:58N 33°49' E 132°30'5 8.4
2018-Jan-19 22:25N 33°52' E 132°34'4 8.8
2018-Jan-19 22:00N 33°54' E 132°37'5 9.4
2018-Jan-19 21:30N 33°57' E 132°42'5 9.8
2018-Jan-19 20:58N 34°01' E 132°46'1310.0
2018-Jan-19 19:41N 34°10' E 132°57'55 8.9
2018-Jan-19 13:31N 34°26' E 134°01'0 9.4
2018-Jan-19 13:30N 34°26' E 134°01'610.0
2018-Jan-19 12:53N 34°26' E 134°09'410.8
2018-Jan-19 12:30N 34°25' E 134°13'610.0
2018-Jan-19 11:51N 34°25' E 134°21'4 9.7
2018-Jan-19 11:30N 34°26' E 134°25'5 9.4
2018-Jan-19 11:00N 34°28' E 134°30'5 9.3
2018-Jan-19 10:30N 34°30' E 134°35'5 9.3
2018-Jan-19 10:00N 34°31' E 134°40'5 9.4
2018-Jan-19 09:30N 34°33' E 134°46'5 9.0
2018-Jan-19 09:00N 34°35' E 134°51'4 8.5
2018-Jan-19 08:30N 34°36' E 134°56'4 7.5
2018-Jan-19 08:00N 34°38' E 134°60'3 6.1
2018-Jan-19 07:30N 34°36' E 135°03'3 5.7
2018-Jan-19 07:00N 34°34' E 135°05'4 8.8
2018-Jan-19 06:30N 34°30' E 135°04'4 8.5
2018-Jan-19 06:00N 34°26' E 135°03'4 8.4
2018-Jan-19 05:30N 34°22' E 135°01'4 8.2
2018-Jan-19 05:00N 34°18' E 134°59'4 8.2
2018-Jan-19 04:30N 34°14' E 134°59'4 8.7
2018-Jan-19 04:00N 34°09' E 134°59'4 8.5
2018-Jan-19 03:30N 34°05' E 134°60'4 8.7
2018-Jan-19 03:00N 34°01' E 135°00'4 8.7
2018-Jan-19 02:30N 33°57' E 135°01'4 8.8
2018-Jan-19 02:00N 33°52' E 135°01'5 9.0
2018-Jan-19 01:30N 33°49' E 135°05'103 7.2
2018-Jan-18 11:07N 34°26' E 137°01'10 8.6
2018-Jan-18 09:54N 34°36' E 136°58'4 8.9
2018-Jan-18 09:26N 34°39' E 137°01'4 9.0
2018-Jan-18 09:00N 34°41' E 137°05'4 8.9
2018-Jan-18 08:30N 34°43' E 137°10'5 8.6
2018-Jan-18 07:57N 34°44' E 137°16'  
2018-Jan-12 14:57N 35°36' E 140°06'0 0.0
2018-Jan-12 14:30N 35°36' E 140°06'0 0.0
2018-Jan-12 14:00N 35°36' E 140°06'0 0.0
2018-Jan-12 13:30N 35°36' E 140°06'0 0.0
2018-Jan-12 12:57N 35°36' E 140°06'0 0.0
2018-Jan-12 12:30N 35°36' E 140°06'0 0.0
2018-Jan-12 11:57N 35°36' E 140°06'0 0.0
2018-Jan-12 11:30N 35°36' E 140°06'0 0.0
2018-Jan-12 11:00N 35°36' E 140°06'0 0.0
2018-Jan-12 10:30N 35°36' E 140°06'0 0.0
2018-Jan-12 10:00N 35°36' E 140°06'0 0.0
2018-Jan-12 09:30N 35°36' E 140°06'0 0.0
2018-Jan-12 09:00N 35°36' E 140°06'0 0.0
2018-Jan-12 08:30N 35°36' E 140°06'0 0.0
2018-Jan-12 08:00N 35°36' E 140°06'0 0.0
2018-Jan-12 07:30N 35°36' E 140°06'0 0.0
2018-Jan-12 07:00N 35°36' E 140°06'0 0.0
2018-Jan-12 06:27N 35°36' E 140°06'0 0.0
2018-Jan-12 06:00N 35°36' E 140°06'0 0.0
2018-Jan-12 05:30N 35°36' E 140°06'0 0.0
2018-Jan-12 05:00N 35°36' E 140°06'0 0.0
2018-Jan-12 04:30N 35°36' E 140°06'0 0.0
2018-Jan-12 04:00N 35°36' E 140°06'0 0.0
2018-Jan-12 03:30N 35°36' E 140°06'0 0.0
2018-Jan-12 03:00N 35°36' E 140°06'0 0.0
2018-Jan-12 02:30N 35°36' E 140°06'0 0.0
2018-Jan-12 02:00N 35°36' E 140°06'0 0.0
2018-Jan-12 01:30N 35°36' E 140°06'0 0.0
2018-Jan-12 01:00N 35°36' E 140°06'0 0.0
2018-Jan-12 00:30N 35°36' E 140°06'0 0.0
2018-Jan-12 00:00N 35°36' E 140°06'0 0.0
2018-Jan-11 23:30N 35°36' E 140°06'0 0.0
2018-Jan-11 23:00N 35°36' E 140°06'0 0.3
2018-Jan-11 22:30N 35°36' E 140°06'2 4.6
2018-Jan-11 22:00N 35°35' E 140°03'1 2.7
2018-Jan-11 21:28N 35°35' E 140°01'0 0.0
2018-Jan-11 20:58N 35°35' E 140°01'0 0.0
2018-Jan-11 20:28N 35°35' E 140°01'0 0.0
2018-Jan-11 19:58N 35°35' E 140°01'0 0.0
2018-Jan-11 19:28N 35°35' E 140°01'0 0.0
2018-Jan-11 18:58N 35°35' E 140°01'0 0.0
2018-Jan-11 18:28N 35°35' E 140°01'0 0.0
2018-Jan-11 17:58N 35°35' E 140°01'0 0.0
2018-Jan-11 17:28N 35°35' E 140°01'0 0.0
2018-Jan-11 16:58N 35°35' E 140°01'0 0.0
2018-Jan-11 16:25N 35°35' E 140°01'0 0.0
2018-Jan-11 15:58N 35°35' E 140°01'0 0.0
2018-Jan-11 15:28N 35°35' E 140°01'0 0.0
2018-Jan-11 14:55N 35°35' E 140°01'0 0.0
2018-Jan-11 14:28N 35°35' E 140°01'0 0.0
2018-Jan-11 13:58N 35°35' E 140°01'0 0.0
2018-Jan-11 13:28N 35°35' E 140°01'0 0.0
2018-Jan-11 12:58N 35°35' E 140°01'0 0.1
2018-Jan-11 12:31N 35°35' E 140°01'0 0.0
2018-Jan-11 11:58N 35°35' E 140°01'0 0.0
2018-Jan-11 11:31N 35°35' E 140°01'0 0.0
2018-Jan-11 11:01N 35°35' E 140°01'0 0.0
2018-Jan-11 10:30N 35°35' E 140°01'0 0.0
2018-Jan-11 10:00N 35°35' E 140°01'0 0.0
2018-Jan-11 09:30N 35°35' E 140°01'0 0.0
2018-Jan-11 09:00N 35°35' E 140°01'0 0.0
2018-Jan-11 08:30N 35°35' E 140°01'0 0.0
2018-Jan-11 08:00N 35°35' E 140°01'0 0.0
2018-Jan-11 07:30N 35°35' E 140°01'0 0.0
2018-Jan-11 07:00N 35°35' E 140°01'0 0.0
2018-Jan-11 06:30N 35°35' E 140°01'0 0.0
2018-Jan-11 05:57N 35°35' E 140°01'0 0.0
2018-Jan-11 05:30N 35°35' E 140°01'0 0.0
2018-Jan-11 05:00N 35°35' E 140°01'0 0.0
2018-Jan-11 04:30N 35°35' E 140°01'0 0.0
2018-Jan-11 04:00N 35°35' E 140°01'0 0.0
2018-Jan-11 03:30N 35°35' E 140°01'0 0.0
2018-Jan-11 03:00N 35°35' E 140°01'0 0.0
2018-Jan-11 02:30N 35°35' E 140°01'0 0.0
2018-Jan-11 02:00N 35°35' E 140°01'0 0.1
2018-Jan-11 01:30N 35°35' E 140°01'0 0.1
2018-Jan-11 01:00N 35°35' E 140°01'0 0.0
2018-Jan-11 00:30N 35°35' E 140°01'3 6.6
2018-Jan-11 00:00N 35°33' E 139°58'5 8.9
2018-Jan-10 23:30N 35°30' E 139°54'4 9.1
2018-Jan-10 23:00N 35°27' E 139°50'4 8.8
2018-Jan-10 22:30N 35°24' E 139°46'5 9.2
2018-Jan-10 22:00N 35°19' E 139°44'4 8.3
2018-Jan-10 21:30N 35°16' E 139°47'4 8.8
2018-Jan-10 21:00N 35°11' E 139°47'4 8.9
2018-Jan-10 20:30N 35°07' E 139°46'4 8.9
2018-Jan-10 20:00N 35°03' E 139°43'5 9.8
2018-Jan-10 19:30N 35°01' E 139°38'510.6
2018-Jan-10 19:00N 34°58' E 139°32'612.2
2018-Jan-10 18:28N 34°55' E 139°25'  

Dump ship's entire track history